Aérodrome :
LOGIN :

S'inscrire | Disclaimer

   EN    FR    IT 

 










Légende :    VFR   VFR Marginal   IFR   IFR Intensif   IFR Très Intensif
Visi : 
Plafond : 
>= 8 km
>= 3000ft
5 à 8 km
1000 à 3000 ft
1500m à 5 km
500 à 1000 ft
800 à 1500m
200 à 500 ft
< 800m
< 200 ft
Symboles :   Orages  Brouillard  Fortes neiges  Fortes précipitations  Vent > 20 kt
SIGMETs :   Divers  Orages  Givrage  Turbulence  Onde Orograph.  Cendres Volcan.







- Altitude de l'aérodrome : 628 ft
- Code IATA : PNL


LICG - Pantelleria

DERNIER METAR :
  • 151055Z 21014KT CAVOK 16/13 Q1013

METARs EXPIRÉS :
  • 150955Z 20016KT 9999 FEW017 16/13 Q1014
  • 150855Z 19013KT CAVOK 16/13 Q1014

TAF TAF LICG
Valide du 15 à 12h jusqu'au 15 à 21h UTC


151100Z 1512/1521 19015KT 9999 FEW020
BECMG 1518/1520 27015G25KT 9999 BKN020
Pas de NOTAMs connus pour ce terrain.
1 SIGMET publié pour la FIR Roma (LIRR) :
 
Turbulence forte
LIRR SIGMET 5 VALID 151100/151300 LIIB
LIRR ROMA FIR SEV TURB FCST WI N4332 E01031 - N4341 E01121 - N4329 E01315 - N4257 E01305 - N4128 E01417 - N4105 E01509 - N4007 E01541 - N4021 E01502 - N4209 E01244 - N4332 E01031 FL020/150 STNR NC=



MET'MAP, la Météo Aéronautique d'un coup d'oeil ! - Copyright ORBIFLY Décembre 2007 - Disclaimer

ORBIFLY MET'MAP TEAM :

Programmation & Développement : Alexandra Zaïnal
Conception & Développement : Baudouin d'Aumeries
Co-Programmation & Développement : Marc-Olivier Méhu
Soutien technique & logistique : Manuel Goepfert

Contact : metmap@orbifly.com




SOURCES & CREDITS :

   NOAA